Terminal Aerodrome Forecast
Issued by NWS

Home | Current Version | Previous Version | Text Only | Print | Product List | Glossary On
Versions: 1 2 3 4 5 6 7 8 9 10 11 12 13 14 15 16 17 18 19 20 21 22 23
173
FTUS43 KIND 111219 AAA
TAFLAF
TAF AMD
KLAF 111219Z 1112/1212 15010KT 1 1/2SM -SN OVC020
     FM111600 16010KT 3SM -SN OVC015
     FM112000 18010KT 2SM -FZRASNPL OVC010
     FM120100 21008KT 2SM -SNRA OVC003
     FM120700 25008KT P6SM OVC008
      AMD LTD TO CLD VIS AND WIND TIL 111400=

USA.gov is the U.S. government's official web portal to all federal, state and local government web resources and services.